createdAt,value
2024-02-23T00:00:06.911Z,8.89
2024-02-23T00:02:33.800Z,8.90
2024-02-23T00:05:02.395Z,8.89
2024-02-23T00:07:29.289Z,8.90
2024-02-23T00:09:56.265Z,8.90
2024-02-23T00:12:23.228Z,8.89
2024-02-23T00:14:52.347Z,8.89
2024-02-23T00:17:19.284Z,8.82
2024-02-23T00:19:47.277Z,8.91
2024-02-23T00:22:14.847Z,8.96
2024-02-23T00:24:42.428Z,8.97
2024-02-23T00:27:09.501Z,8.95
2024-02-23T00:29:36.830Z,9.04
2024-02-23T00:32:05.829Z,9.08
2024-02-23T00:34:33.602Z,9.08
2024-02-23T00:37:00.853Z,9.07
2024-02-23T00:39:27.701Z,9.04
2024-02-23T00:41:54.874Z,9.02
2024-02-23T00:44:21.839Z,8.96
2024-02-23T00:46:48.971Z,9.02
2024-02-23T00:49:16.018Z,9.01
2024-02-23T00:51:42.888Z,8.96
2024-02-23T00:54:09.804Z,8.96
2024-02-23T00:56:45.709Z,9.00
2024-02-23T00:59:18.084Z,8.97
2024-02-23T01:01:44.996Z,8.97
2024-02-23T01:04:11.903Z,9.00
2024-02-23T01:06:38.952Z,9.04
2024-02-23T01:09:06.076Z,8.97
2024-02-23T01:11:33.111Z,8.97
2024-02-23T01:14:00.201Z,9.00
2024-02-23T01:16:27.383Z,9.01
2024-02-23T01:18:54.283Z,9.02
2024-02-23T01:21:21.246Z,9.02
2024-02-23T01:23:48.274Z,9.05
2024-02-23T01:26:15.819Z,9.07
2024-02-23T01:28:42.719Z,9.01
2024-02-23T01:31:12.536Z,9.06
2024-02-23T01:33:40.625Z,9.08
2024-02-23T01:36:09.075Z,9.05
2024-02-23T01:38:36.217Z,9.10
2024-02-23T01:41:03.286Z,9.11
2024-02-23T01:43:30.107Z,9.16
2024-02-23T01:45:57.004Z,9.21
2024-02-23T01:48:24.051Z,9.19
2024-02-23T01:50:51.390Z,9.21
2024-02-23T01:53:20.896Z,9.23
2024-02-23T01:55:48.775Z,9.30
2024-02-23T01:58:16.234Z,9.33
2024-02-23T02:00:43.171Z,9.31
2024-02-23T02:03:12.925Z,9.38
2024-02-23T02:05:40.345Z,9.44
2024-02-23T02:08:07.721Z,9.48
2024-02-23T02:10:34.887Z,9.64
2024-02-23T02:13:06.083Z,9.59
2024-02-23T02:15:33.023Z,9.60
2024-02-23T02:18:00.035Z,9.60
2024-02-23T02:20:27.672Z,9.65
2024-02-23T02:22:54.683Z,9.70
2024-02-23T02:25:22.022Z,9.73
2024-02-23T02:27:49.015Z,9.66
2024-02-23T02:30:15.987Z,9.63
2024-02-23T02:32:43.101Z,9.60
2024-02-23T02:35:13.924Z,9.55
2024-02-23T02:37:41.188Z,9.49
2024-02-23T02:40:08.732Z,9.49
2024-02-23T02:42:36.028Z,9.51
2024-02-23T02:45:04.740Z,9.45
2024-02-23T02:47:31.893Z,9.42
2024-02-23T02:49:59.131Z,9.42
2024-02-23T02:52:26.222Z,9.33
2024-02-23T02:54:53.240Z,9.25
2024-02-23T02:57:20.057Z,9.11
2024-02-23T02:59:47.564Z,9.10
2024-02-23T03:02:14.732Z,8.99
2024-02-23T03:04:48.526Z,8.94
2024-02-23T03:07:16.710Z,8.85
2024-02-23T03:09:43.983Z,8.75
2024-02-23T03:12:12.126Z,8.74
2024-02-23T03:14:42.007Z,8.75
2024-02-23T03:17:11.207Z,8.75
2024-02-23T03:19:38.945Z,8.74
2024-02-23T03:22:06.416Z,8.60
2024-02-23T03:24:33.364Z,8.43
2024-02-23T03:27:00.542Z,8.41
2024-02-23T03:29:31.211Z,8.42
2024-02-23T03:31:58.477Z,8.32
2024-02-23T03:34:25.988Z,8.33
2024-02-23T03:36:53.291Z,8.19
2024-02-23T03:39:20.172Z,8.25
2024-02-23T03:41:47.330Z,8.18
2024-02-23T03:44:14.224Z,8.16
2024-02-23T03:46:41.143Z,8.14
2024-02-23T03:49:07.975Z,8.12
2024-02-23T03:51:37.039Z,8.09
2024-02-23T03:54:04.614Z,8.10
2024-02-23T03:56:31.672Z,8.19
2024-02-23T03:58:58.685Z,8.09
2024-02-23T04:01:25.719Z,8.09
2024-02-23T04:03:52.619Z,8.14
2024-02-23T04:06:19.579Z,8.15
2024-02-23T04:08:48.957Z,8.15
2024-02-23T04:11:17.244Z,8.06
2024-02-23T04:13:44.497Z,8.06
2024-02-23T04:16:11.401Z,8.08
2024-02-23T04:18:38.266Z,8.07
2024-02-23T04:21:05.456Z,8.10
2024-02-23T04:23:32.413Z,7.99
2024-02-23T04:26:00.725Z,7.91
2024-02-23T04:28:32.141Z,7.83
2024-02-23T04:30:59.058Z,7.84
2024-02-23T04:33:25.936Z,7.85
2024-02-23T04:35:53.250Z,7.89
2024-02-23T04:38:20.174Z,7.87
2024-02-23T04:40:47.092Z,7.98
2024-02-23T04:43:15.093Z,7.83
2024-02-23T04:45:42.175Z,7.89
2024-02-23T04:48:09.265Z,7.98
2024-02-23T04:50:36.383Z,7.93
2024-02-23T04:53:03.794Z,7.93
2024-02-23T04:55:30.732Z,7.80
2024-02-23T04:57:58.091Z,7.77
2024-02-23T05:00:25.299Z,7.75
2024-02-23T05:02:52.260Z,7.68
2024-02-23T05:05:19.262Z,7.59
2024-02-23T05:07:46.186Z,7.44
2024-02-23T05:10:13.198Z,7.35
2024-02-23T05:12:40.210Z,7.27
2024-02-23T05:15:08.660Z,7.20
2024-02-23T05:17:36.031Z,7.16
2024-02-23T05:20:09.526Z,7.12
2024-02-23T05:22:36.461Z,7.17
2024-02-23T05:25:03.308Z,7.12
2024-02-23T05:27:30.228Z,7.04
2024-02-23T05:29:57.190Z,6.90
2024-02-23T05:32:24.139Z,6.83
2024-02-23T05:34:54.193Z,6.99
2024-02-23T05:37:21.100Z,7.01
2024-02-23T05:39:48.213Z,6.90
2024-02-23T05:42:15.300Z,6.82
2024-02-23T05:44:45.785Z,6.48
2024-02-23T05:47:12.789Z,6.31
2024-02-23T05:49:39.755Z,6.17
2024-02-23T05:52:06.811Z,6.11
2024-02-23T05:54:33.661Z,6.10
2024-02-23T05:57:00.643Z,6.06
2024-02-23T05:59:28.921Z,6.00
2024-02-23T06:01:58.688Z,5.92
2024-02-23T06:04:26.352Z,5.90
2024-02-23T06:06:53.342Z,5.89
2024-02-23T06:09:20.547Z,5.89
2024-02-23T06:11:47.754Z,5.88
2024-02-23T06:14:15.240Z,5.92
2024-02-23T06:16:42.236Z,5.78
2024-02-23T06:19:09.760Z,5.86
2024-02-23T06:21:38.004Z,5.82
2024-02-23T06:24:06.278Z,5.84
2024-02-23T06:26:33.427Z,5.82
2024-02-23T06:29:00.627Z,5.81
2024-02-23T06:31:28.047Z,5.73
2024-02-23T06:33:55.236Z,5.86
2024-02-23T06:36:22.128Z,5.88
2024-02-23T06:38:49.068Z,5.78
2024-02-23T06:41:16.260Z,5.69
2024-02-23T06:43:43.305Z,5.73
2024-02-23T06:46:10.950Z,5.77
2024-02-23T06:48:38.609Z,5.80
2024-02-23T06:51:06.501Z,5.80
2024-02-23T06:53:33.598Z,5.79
2024-02-23T06:56:00.742Z,5.84
2024-02-23T06:58:30.309Z,5.83
2024-02-23T07:00:57.412Z,5.85
2024-02-23T07:03:24.402Z,6.00
2024-02-23T07:05:51.852Z,5.97
2024-02-23T07:08:19.496Z,5.98
2024-02-23T07:10:46.768Z,5.97
2024-02-23T07:13:15.986Z,5.98
2024-02-23T07:15:43.013Z,6.10
2024-02-23T07:18:10.094Z,6.17
2024-02-23T07:20:38.740Z,6.28
2024-02-23T07:23:06.577Z,6.54
2024-02-23T07:25:33.482Z,6.34
2024-02-23T07:28:00.647Z,6.12
2024-02-23T07:30:27.694Z,6.15
2024-02-23T07:32:54.588Z,6.43
2024-02-23T07:35:21.659Z,6.51
2024-02-23T07:37:48.704Z,6.57
2024-02-23T07:40:18.285Z,6.55
2024-02-23T07:42:47.535Z,6.37
2024-02-23T07:45:14.603Z,6.58
2024-02-23T07:47:41.534Z,6.53
2024-02-23T07:50:09.956Z,6.34
2024-02-23T07:52:36.972Z,6.20
2024-02-23T07:55:06.726Z,6.11
2024-02-23T07:57:34.491Z,6.07
2024-02-23T08:00:01.671Z,6.47
2024-02-23T08:02:43.212Z,6.30
2024-02-23T08:05:11.466Z,6.31
2024-02-23T08:07:38.830Z,6.57
2024-02-23T08:10:06.516Z,6.77
2024-02-23T08:12:33.509Z,6.70
2024-02-23T08:15:00.826Z,6.90
2024-02-23T08:17:28.079Z,6.65
2024-02-23T08:19:55.138Z,6.81
2024-02-23T08:22:22.113Z,7.12
2024-02-23T08:24:49.219Z,7.34
2024-02-23T08:27:16.819Z,7.22
2024-02-23T08:29:46.734Z,7.31
2024-02-23T08:32:14.534Z,7.32
2024-02-23T08:34:50.174Z,7.17
2024-02-23T08:37:30.482Z,7.28
2024-02-23T08:40:06.207Z,7.44
2024-02-23T08:42:52.741Z,7.44
2024-02-23T08:45:23.841Z,7.28
2024-02-23T08:48:11.204Z,7.30
2024-02-23T08:50:48.755Z,7.39
2024-02-23T08:53:18.762Z,7.32
2024-02-23T08:56:14.090Z,7.47
2024-02-23T08:58:51.836Z,7.40
2024-02-23T09:01:18.692Z,7.35
2024-02-23T09:03:45.713Z,7.20
2024-02-23T09:06:12.819Z,7.27
2024-02-23T09:08:40.736Z,7.29
2024-02-23T09:11:07.897Z,7.34
2024-02-23T09:13:34.919Z,7.43
2024-02-23T09:16:02.286Z,7.33
2024-02-23T09:18:29.296Z,7.21
2024-02-23T09:20:56.351Z,7.31
2024-02-23T09:23:23.253Z,7.32
2024-02-23T09:25:50.200Z,7.53
2024-02-23T09:28:17.271Z,7.59
2024-02-23T09:30:45.270Z,7.46
2024-02-23T09:33:12.140Z,7.62
2024-02-23T09:35:39.298Z,7.54
2024-02-23T09:38:06.467Z,7.62
2024-02-23T09:40:33.545Z,7.77
2024-02-23T09:43:00.782Z,7.78
2024-02-23T09:45:31.036Z,7.76
2024-02-23T09:47:58.913Z,7.67
2024-02-23T09:50:26.304Z,7.58
2024-02-23T09:52:57.963Z,7.71
2024-02-23T09:55:25.012Z,7.78
2024-02-23T09:57:56.250Z,7.75
2024-02-23T10:00:24.628Z,7.72
2024-02-23T10:02:52.280Z,7.64
2024-02-23T10:05:19.618Z,7.56
2024-02-23T10:07:48.203Z,7.70
2024-02-23T10:10:15.272Z,7.74
2024-02-23T10:12:42.190Z,7.64
2024-02-23T10:15:09.147Z,7.89
2024-02-23T10:17:36.816Z,7.89
2024-02-23T10:20:07.579Z,7.95
2024-02-23T10:22:34.528Z,8.13
2024-02-23T10:25:01.541Z,8.07
2024-02-23T10:27:29.266Z,8.07
2024-02-23T10:29:56.457Z,8.08
2024-02-23T10:32:24.535Z,8.10
2024-02-23T10:34:53.520Z,8.07
2024-02-23T10:37:20.549Z,8.15
2024-02-23T10:39:47.541Z,8.28
2024-02-23T10:42:15.263Z,8.27
2024-02-23T10:44:42.566Z,8.29
2024-02-23T10:47:10.166Z,8.29
2024-02-23T10:49:37.966Z,8.43
2024-02-23T10:52:05.280Z,8.13
2024-02-23T10:54:32.940Z,8.26
2024-02-23T10:56:59.982Z,7.93
2024-02-23T10:59:28.166Z,8.01
2024-02-23T11:01:55.718Z,8.37
2024-02-23T11:04:23.497Z,8.60
2024-02-23T11:06:54.388Z,8.59
2024-02-23T11:09:25.847Z,8.80
2024-02-23T11:12:00.489Z,8.99
2024-02-23T11:14:36.515Z,9.04
2024-02-23T11:17:04.881Z,9.00
2024-02-23T11:19:40.928Z,9.08
2024-02-23T11:22:16.612Z,9.10
2024-02-23T11:24:53.039Z,9.04
2024-02-23T11:27:23.046Z,9.10
2024-02-23T11:30:00.588Z,9.07
2024-02-23T11:32:39.822Z,8.65
2024-02-23T11:35:10.168Z,8.70
2024-02-23T11:38:00.566Z,9.05
2024-02-23T11:40:27.920Z,9.14
2024-02-23T11:42:58.117Z,8.75
2024-02-23T11:45:25.207Z,8.51
2024-02-23T11:47:54.629Z,8.51
2024-02-23T11:50:22.346Z,8.62
2024-02-23T11:52:49.604Z,8.93
2024-02-23T11:55:24.330Z,9.12
2024-02-23T11:57:58.999Z,9.25
2024-02-23T12:00:47.185Z,9.40
2024-02-23T12:03:14.385Z,9.43
2024-02-23T12:05:44.360Z,9.34
2024-02-23T12:08:11.660Z,9.45
2024-02-23T12:10:42.139Z,9.49
2024-02-23T12:13:09.819Z,9.42
2024-02-23T12:15:36.855Z,9.32
2024-02-23T12:18:04.972Z,9.26
2024-02-23T12:20:34.943Z,9.27
2024-02-23T12:23:07.051Z,9.31
2024-02-23T12:25:35.028Z,9.23
2024-02-23T12:28:03.102Z,9.42
2024-02-23T12:30:49.769Z,9.58
2024-02-23T12:33:44.328Z,9.55
2024-02-23T12:36:12.963Z,9.45
2024-02-23T12:38:49.823Z,9.35
2024-02-23T12:41:27.009Z,9.38
2024-02-23T12:44:07.329Z,9.22
2024-02-23T12:46:34.411Z,9.28
2024-02-23T12:49:01.355Z,9.30
2024-02-23T12:51:30.740Z,9.35
2024-02-23T12:53:57.603Z,9.37
2024-02-23T12:56:26.700Z,9.25
2024-02-23T12:58:55.539Z,9.27
2024-02-23T13:01:22.675Z,9.21
2024-02-23T13:03:49.758Z,9.13
2024-02-23T13:06:16.817Z,9.14
2024-02-23T13:08:44.660Z,9.07
2024-02-23T13:11:11.760Z,9.09
2024-02-23T13:13:40.337Z,9.07
2024-02-23T13:16:09.860Z,9.08
2024-02-23T13:18:36.848Z,9.00
2024-02-23T13:21:05.040Z,9.04
2024-02-23T13:23:32.096Z,9.05
2024-02-23T13:25:59.484Z,9.05
2024-02-23T13:28:26.552Z,9.06
2024-02-23T13:30:53.484Z,8.94
2024-02-23T13:33:22.192Z,8.94
2024-02-23T13:35:49.574Z,8.98
2024-02-23T13:38:16.569Z,8.99
2024-02-23T13:40:43.584Z,9.02
2024-02-23T13:43:11.314Z,9.00
2024-02-23T13:45:51.152Z,9.03
2024-02-23T13:48:19.974Z,8.92
2024-02-23T13:50:50.373Z,8.92
2024-02-23T13:53:20.898Z,8.89
2024-02-23T13:55:47.881Z,8.82
2024-02-23T13:58:14.814Z,8.80
2024-02-23T14:00:41.780Z,8.67
2024-02-23T14:03:09.029Z,8.83
2024-02-23T14:05:36.077Z,8.78
2024-02-23T14:08:04.316Z,8.83
2024-02-23T14:10:32.930Z,8.79
2024-02-23T14:12:59.996Z,8.71
2024-02-23T14:15:28.245Z,8.59
2024-02-23T14:17:55.260Z,8.47
2024-02-23T14:20:39.467Z,8.44
2024-02-23T14:23:08.661Z,8.59
2024-02-23T14:25:35.593Z,8.61
2024-02-23T14:28:02.547Z,8.74
2024-02-23T14:30:29.571Z,8.76
2024-02-23T14:32:56.544Z,8.71
2024-02-23T14:35:23.495Z,8.74
2024-02-23T14:37:50.412Z,8.72
2024-02-23T14:40:17.553Z,8.74
2024-02-23T14:42:44.487Z,8.77
2024-02-23T14:45:13.508Z,8.81
2024-02-23T14:47:45.934Z,8.74
2024-02-23T14:50:13.825Z,8.75
2024-02-23T14:52:41.072Z,8.66
2024-02-23T14:55:08.242Z,8.56
2024-02-23T14:57:35.093Z,8.66
2024-02-23T15:00:03.739Z,8.52
2024-02-23T15:02:30.721Z,8.52
2024-02-23T15:04:57.727Z,8.73
2024-02-23T15:07:24.812Z,8.47
2024-02-23T15:09:51.853Z,8.31
2024-02-23T15:12:19.248Z,8.32
2024-02-23T15:14:46.290Z,8.16
2024-02-23T15:17:13.561Z,8.23
2024-02-23T15:19:40.613Z,8.11
2024-02-23T15:23:49.259Z,8.09
2024-02-23T15:27:09.824Z,8.09
2024-02-23T15:29:33.135Z,8.08
2024-02-23T15:32:02.592Z,8.10
2024-02-23T15:34:34.258Z,8.08
2024-02-23T15:37:11.698Z,7.99
2024-02-23T15:39:39.869Z,7.98
2024-02-23T15:42:06.964Z,7.90
2024-02-23T15:44:34.265Z,7.89
2024-02-23T15:47:02.923Z,7.80
2024-02-23T15:50:09.218Z,7.81
2024-02-23T15:52:45.033Z,7.79
2024-02-23T15:55:13.487Z,7.79
2024-02-23T15:57:40.758Z,7.77
2024-02-23T16:00:11.970Z,7.78
2024-02-23T16:02:39.110Z,7.73
2024-02-23T16:05:08.809Z,7.66
2024-02-23T16:07:36.312Z,7.60
2024-02-23T16:10:03.933Z,7.55
2024-02-23T16:12:30.904Z,7.55
2024-02-23T16:14:58.077Z,7.53
2024-02-23T16:17:25.016Z,7.55
2024-02-23T16:19:52.246Z,7.52
2024-02-23T16:22:19.529Z,7.55
2024-02-23T16:24:48.215Z,7.53
2024-02-23T16:27:15.908Z,7.47
2024-02-23T16:29:51.374Z,7.47
2024-02-23T16:32:33.753Z,7.38
2024-02-23T16:35:11.683Z,7.37
2024-02-23T16:37:38.605Z,7.35
2024-02-23T16:40:06.037Z,7.30
2024-02-23T16:42:32.946Z,7.27
2024-02-23T16:44:59.912Z,7.28
2024-02-23T16:47:26.890Z,7.21
2024-02-23T16:49:54.121Z,7.17
2024-02-23T16:52:21.419Z,7.13
2024-02-23T16:54:48.653Z,7.03
2024-02-23T16:57:15.553Z,7.05
2024-02-23T16:59:42.481Z,7.04
2024-02-23T17:02:09.396Z,7.03
2024-02-23T17:04:37.362Z,6.98
2024-02-23T17:07:04.505Z,6.96
2024-02-23T17:09:31.539Z,6.89
2024-02-23T17:11:58.497Z,6.90
2024-02-23T17:14:26.512Z,6.90
2024-02-23T17:16:53.382Z,6.85
2024-02-23T17:19:20.311Z,6.81
2024-02-23T17:21:47.481Z,6.84
2024-02-23T17:24:14.381Z,6.84
2024-02-23T17:26:41.422Z,6.80
2024-02-23T17:29:10.657Z,6.73
2024-02-23T17:31:37.675Z,6.74
2024-02-23T17:34:04.657Z,6.72
2024-02-23T17:36:31.672Z,6.72
2024-02-23T17:38:58.584Z,6.72
2024-02-23T17:41:26.638Z,6.70
2024-02-23T17:43:53.671Z,6.63
2024-02-23T17:46:20.495Z,6.54
2024-02-23T17:48:47.428Z,6.54
2024-02-23T17:51:14.974Z,6.55
2024-02-23T17:53:41.902Z,6.54
2024-02-23T17:56:09.446Z,6.51
2024-02-23T17:58:37.185Z,6.52
2024-02-23T18:01:04.960Z,6.65
2024-02-23T18:03:32.252Z,6.64
2024-02-23T18:05:59.222Z,6.63
2024-02-23T18:08:26.150Z,6.53
2024-02-23T18:10:53.014Z,6.49
2024-02-23T18:13:19.913Z,6.42
2024-02-23T18:15:47.080Z,6.33
2024-02-23T18:18:15.583Z,6.31
2024-02-23T18:20:45.131Z,6.29
2024-02-23T18:23:12.179Z,6.31
2024-02-23T18:25:39.081Z,6.25
2024-02-23T18:28:06.021Z,6.25
2024-02-23T18:30:32.927Z,6.17
2024-02-23T18:32:59.935Z,6.09
2024-02-23T18:35:27.101Z,6.09
2024-02-23T18:37:53.954Z,6.13
2024-02-23T18:40:20.738Z,6.10
2024-02-23T18:42:47.668Z,6.07
2024-02-23T18:45:15.699Z,6.08
2024-02-23T18:47:42.634Z,6.00
2024-02-23T18:50:10.262Z,5.97
2024-02-23T18:52:37.467Z,5.95
2024-02-23T18:55:04.659Z,5.87
2024-02-23T18:57:32.677Z,5.87
2024-02-23T18:59:59.856Z,5.95
2024-02-23T19:02:27.172Z,5.97
2024-02-23T19:04:54.131Z,5.97
2024-02-23T19:07:21.258Z,6.03
2024-02-23T19:09:48.210Z,5.97
2024-02-23T19:12:15.336Z,6.00
2024-02-23T19:14:42.395Z,6.04
2024-02-23T19:17:10.328Z,5.99
2024-02-23T19:19:37.801Z,5.87
2024-02-23T19:22:05.090Z,5.88
2024-02-23T19:24:32.172Z,5.91
2024-02-23T19:27:00.972Z,5.88
2024-02-23T19:29:28.386Z,5.88
2024-02-23T19:31:55.408Z,5.87
2024-02-23T19:34:22.485Z,5.87
2024-02-23T19:36:50.056Z,5.83
2024-02-23T19:39:16.929Z,5.83
2024-02-23T19:41:47.168Z,5.78
2024-02-23T19:44:14.461Z,5.78
2024-02-23T19:46:41.372Z,5.82
2024-02-23T19:49:08.847Z,5.82
2024-02-23T19:51:37.446Z,5.73
2024-02-23T19:54:05.818Z,5.79
2024-02-23T19:56:33.135Z,5.77
2024-02-23T19:59:11.339Z,5.66
2024-02-23T20:01:40.537Z,5.77
2024-02-23T20:04:10.995Z,5.76
2024-02-23T20:07:38.099Z,5.74
2024-02-23T20:10:07.230Z,5.80
2024-02-23T20:16:29.153Z,5.71
2024-02-23T20:18:59.905Z,5.74
2024-02-23T20:21:36.255Z,5.78
2024-02-23T20:24:59.202Z,5.66
2024-02-23T20:27:31.640Z,5.67
2024-02-23T20:30:00.795Z,5.60
2024-02-23T20:32:30.287Z,5.60
2024-02-23T20:35:28.357Z,5.53
2024-02-23T20:37:59.671Z,5.50
2024-02-23T20:40:31.860Z,5.51
2024-02-23T20:42:59.698Z,5.51
2024-02-23T20:45:46.692Z,5.46
2024-02-23T20:48:29.128Z,5.39
2024-02-23T20:51:19.398Z,5.33
2024-02-23T20:53:48.943Z,5.54
2024-02-23T20:56:16.069Z,5.49
2024-02-23T20:58:43.147Z,5.52
2024-02-23T21:01:10.307Z,5.46
2024-02-23T21:03:38.341Z,5.49
2024-02-23T21:06:08.848Z,5.44
2024-02-23T21:08:37.956Z,5.41
2024-02-23T21:11:05.036Z,5.42
2024-02-23T21:13:32.139Z,5.46
2024-02-23T21:15:59.302Z,5.46
2024-02-23T21:18:26.353Z,5.46
2024-02-23T21:20:53.453Z,5.41
2024-02-23T21:23:29.535Z,5.37
2024-02-23T21:25:59.376Z,5.34
2024-02-23T21:28:28.922Z,5.38
2024-02-23T21:31:17.174Z,5.33
2024-02-23T21:36:41.898Z,5.32
2024-02-23T21:37:29.398Z,5.33
2024-02-23T21:39:56.409Z,5.33
2024-02-23T21:42:30.719Z,5.32
2024-02-23T21:45:00.144Z,5.28
2024-02-23T21:47:27.499Z,5.32
2024-02-23T21:49:54.527Z,5.25
2024-02-23T21:52:26.364Z,5.27
2024-02-23T21:54:59.060Z,5.23
2024-02-23T21:57:53.944Z,5.26
2024-02-23T22:00:23.406Z,5.28
2024-02-23T22:03:16.705Z,5.26
2024-02-23T22:05:56.526Z,5.22
2024-02-23T22:08:38.029Z,5.20
2024-02-23T22:11:37.112Z,5.08
2024-02-23T22:14:09.973Z,5.10
2024-02-23T22:16:39.405Z,4.99
2024-02-23T22:19:13.638Z,5.04
2024-02-23T22:22:15.985Z,5.02
2024-02-23T22:27:21.129Z,5.01
2024-02-23T22:27:56.307Z,5.01
2024-02-23T22:30:23.310Z,5.03
2024-02-23T22:33:18.214Z,4.99
2024-02-23T22:37:07.075Z,4.94
2024-02-23T22:39:26.117Z,4.96
2024-02-23T22:42:21.782Z,4.95
2024-02-23T22:45:38.812Z,4.86
2024-02-23T22:48:24.975Z,4.86
2024-02-23T22:51:29.527Z,4.87
2024-02-23T22:54:15.690Z,4.82
2024-02-23T22:56:55.257Z,4.82
2024-02-23T22:59:49.282Z,4.79
2024-02-23T23:03:17.653Z,4.73
2024-02-23T23:05:25.526Z,4.78
2024-02-23T23:08:17.473Z,4.71
2024-02-23T23:13:27.764Z,4.68
2024-02-23T23:14:05.741Z,4.70
2024-02-23T23:16:43.409Z,4.68
2024-02-23T23:19:14.659Z,4.66
2024-02-23T23:22:01.363Z,4.66
2024-02-23T23:24:31.910Z,4.70
2024-02-23T23:27:10.016Z,4.65
2024-02-23T23:29:45.946Z,4.61
2024-02-23T23:32:18.740Z,4.59
2024-02-23T23:34:45.970Z,4.59
2024-02-23T23:37:58.374Z,4.61
2024-02-23T23:40:48.986Z,4.58
2024-02-23T23:43:31.868Z,4.55
2024-02-23T23:46:13.063Z,4.59
2024-02-23T23:48:44.795Z,4.56
2024-02-23T23:51:13.377Z,4.57
2024-02-23T23:53:44.958Z,4.57
2024-02-23T23:56:39.410Z,4.48
2024-02-23T23:59:11.999Z,4.43
